Terminal Aerodrome Forecast
Issued by NWS Omaha/Valley, NE

Home | Current Version | Previous Version | Text Only | Print | Product List | Glossary On
Versions: 1 2 3 4 5 6 7 8 9 10 11 12 13 14 15 16 17 18
000
FTUS43 KOAX 201129
TAFLNK
TAF
KLNK 201129Z 2012/2112 21010KT P6SM VCTS BKN070CB
      TEMPO 2012/2013 6SM -TSRA BKN040CB
     FM201500 17006KT P6SM SCT100
     FM210400 16005KT P6SM SCT100 WS020/21035KT
     FM210900 14004KT P6SM SCT250=

USA.gov is the U.S. government's official web portal to all federal, state and local government web resources and services.